Time;durP1;ratioP1;P1;durP2;ratioP2;P2;SDS_P1;SDS_P2;PMS_P1;PMS_P2;Temp;Humidity;BMP_temperature;BMP_pressure;BME280_temperature;BME280_humidity;BME280_pressure;Samples;Min_cycle;Max_cycle;Signal;HPM_P1;HPM_P2
2021/12/25 00:01:21;;;;;;;0.40;0.40;;;10.80;81.80;;;;;;5042004;28;20032;-79
2021/12/25 00:03:53;;;;;;;0.40;0.40;;;11.00;81.70;;;;;;5042738;28;20052;-79
2021/12/25 00:06:26;;;;;;;0.73;0.40;;;10.90;82.10;;;;;;5043467;28;20029;-79
2021/12/25 00:08:52;;;;;;;0.45;0.40;;;10.90;81.90;;;;;;5043113;28;20100;-78
2021/12/25 00:11:29;;;;;;;0.40;0.40;;;10.90;82.20;;;;;;5043799;28;20110;-79
2021/12/25 00:13:54;;;;;;;1.88;0.50;;;11.20;82.10;;;;;;5040893;28;20358;-78
2021/12/25 00:16:23;;;;;;;0.25;0.20;;;10.80;82.00;;;;;;5024712;28;20483;-79
2021/12/25 00:19:09;;;;;;;0.50;0.50;;;10.90;82.50;;;;;;5043050;28;20033;-79
2021/12/25 00:21:35;;;;;;;1.43;0.50;;;11.40;82.70;;;;;;5043860;28;20041;-78
2021/12/25 00:24:06;;;;;;;0.40;0.40;;;10.90;82.50;;;;;;5012224;28;20125;-79
2021/12/25 00:29:32;;;;;;;0.32;0.30;;;11.20;83.10;;;;;;5051385;28;20025;-78
2021/12/25 00:32:14;;;;;;;2.60;0.40;;;10.90;82.50;;;;;;5036342;28;20174;-79
2021/12/25 00:34:42;;;;;;;1.75;0.55;;;10.90;82.30;;;;;;5031357;28;20044;-79
2021/12/25 00:37:09;;;;;;;0.73;0.30;;;10.90;82.30;;;;;;5043858;28;20017;-79
2021/12/25 00:39:36;;;;;;;0.98;0.60;;;11.00;82.30;;;;;;5042085;28;20763;-78
2021/12/25 00:42:06;;;;;;;0.63;0.40;;;10.90;82.10;;;;;;5043740;28;20433;-79
2021/12/25 00:44:37;;;;;;;0.45;0.40;;;10.00;81.70;;;;;;5044284;28;20025;-79
2021/12/25 00:47:04;;;;;;;0.45;0.40;;;10.90;82.40;;;;;;5048141;28;20154;-78
2021/12/25 00:49:32;;;;;;;1.10;0.40;;;10.90;81.90;;;;;;5048554;28;20039;-79
2021/12/25 00:51:58;;;;;;;0.55;0.50;;;10.90;82.00;;;;;;5046326;28;20025;-79
2021/12/25 00:54:24;;;;;;;0.30;0.30;;;10.90;81.50;;;;;;5045273;28;20060;-79
2021/12/25 00:56:50;;;;;;;0.40;0.40;;;10.80;81.50;;;;;;5046390;28;20013;-79
2021/12/25 00:59:27;;;;;;;0.30;0.30;;;10.80;81.80;;;;;;5045193;28;20025;-79
2021/12/25 01:01:53;;;;;;;0.20;0.20;;;11.20;82.20;;;;;;5043799;28;20528;-79
2021/12/25 01:04:19;;;;;;;0.60;0.20;;;10.90;81.50;;;;;;5042420;28;20017;-78
2021/12/25 01:06:45;;;;;;;1.10;0.40;;;10.80;81.80;;;;;;5040792;28;20217;-78
2021/12/25 01:09:13;;;;;;;2.40;0.30;;;10.80;82.00;;;;;;5042260;28;20086;-79
2021/12/25 01:11:52;;;;;;;0.38;0.30;;;10.70;82.20;;;;;;5040214;28;20055;-79
2021/12/25 01:17:41;;;;;;;0.32;0.30;;;11.20;84.40;;;;;;5040365;28;20335;-79
2021/12/25 01:31:07;;;;;;;0.40;0.40;;;10.90;82.10;;;;;;4996476;28;20030;-78
2021/12/25 01:36:55;;;;;;;0.47;0.47;;;10.90;82.30;;;;;;4956992;28;20042;-79
2021/12/25 01:42:08;;;;;;;0.95;0.30;;;10.80;83.00;;;;;;4957275;28;20063;-79
2021/12/25 01:49:58;;;;;;;3.30;0.95;;;10.80;84.20;;;;;;4958328;28;20066;-79
2021/12/25 01:52:26;;;;;;;2.17;0.65;;;10.90;83.90;;;;;;4958977;28;20345;-78
2021/12/25 01:55:00;;;;;;;0.50;0.50;;;10.90;84.10;;;;;;4958786;28;20047;-78
2021/12/25 01:57:28;;;;;;;1.35;0.60;;;10.80;84.20;;;;;;4943242;28;20221;-79
2021/12/25 01:59:54;;;;;;;1.65;0.63;;;10.80;84.00;;;;;;4978358;28;20307;-78
2021/12/25 02:02:29;;;;;;;0.43;0.43;;;10.90;83.70;;;;;;4979051;28;20026;-79
2021/12/25 02:04:55;;;;;;;0.85;0.70;;;10.90;83.60;;;;;;4979236;28;20026;-79
2021/12/25 02:07:21;;;;;;;0.50;0.50;;;10.90;84.10;;;;;;4979537;28;20050;-79
2021/12/25 02:09:48;;;;;;;0.47;0.40;;;10.90;83.80;;;;;;4979370;28;20039;-79
2021/12/25 02:12:15;;;;;;;0.63;0.40;;;10.90;84.10;;;;;;4979784;28;20098;-78
2021/12/25 02:14:43;;;;;;;0.40;0.40;;;11.00;83.30;;;;;;5041677;28;20044;-78
2021/12/25 02:17:45;;;;;;;0.40;0.40;;;11.00;83.00;;;;;;5042721;28;20057;-79
2021/12/25 02:20:37;;;;;;;0.50;0.50;;;11.10;82.70;;;;;;5042138;28;20542;-78
2021/12/25 02:23:15;;;;;;;0.43;0.43;;;11.10;83.10;;;;;;4998513;28;20045;-79
2021/12/25 02:25:45;;;;;;;0.40;0.40;;;11.00;82.90;;;;;;5001153;28;20036;-79
2021/12/25 02:28:13;;;;;;;2.55;0.50;;;11.00;82.90;;;;;;5004228;28;20077;-78
2021/12/25 02:30:39;;;;;;;0.70;0.40;;;11.10;82.70;;;;;;5005205;28;20034;-78
2021/12/25 02:33:07;;;;;;;0.65;0.40;;;11.10;82.70;;;;;;5003915;28;20045;-79
2021/12/25 02:35:36;;;;;;;0.35;0.35;;;10.80;82.40;;;;;;5003989;28;20018;-79
2021/12/25 02:38:02;;;;;;;2.22;2.00;;;11.10;82.50;;;;;;5004627;28;20060;-79
2021/12/25 02:40:28;;;;;;;1.90;0.50;;;11.10;82.60;;;;;;5004862;28;20060;-79
2021/12/25 02:42:54;;;;;;;0.70;0.60;;;11.10;82.40;;;;;;5004664;28;20476;-78
2021/12/25 02:45:24;;;;;;;2.42;0.50;;;11.70;82.90;;;;;;5004819;28;20030;-79
2021/12/25 02:47:53;;;;;;;0.40;0.40;;;11.10;82.50;;;;;;5004904;28;20041;-79
2021/12/25 02:50:29;;;;;;;0.85;0.55;;;11.10;82.50;;;;;;5005197;28;20568;-78
2021/12/25 02:53:01;;;;;;;0.57;0.50;;;11.10;82.80;;;;;;5004601;28;20140;-79
2021/12/25 02:55:28;;;;;;;1.77;0.52;;;10.60;82.10;;;;;;5005221;28;20341;-78
2021/12/25 02:57:55;;;;;;;1.05;0.55;;;11.10;82.10;;;;;;5006276;28;20022;-78
2021/12/25 03:00:32;;;;;;;1.88;0.90;;;11.20;82.20;;;;;;5043688;28;20048;-79
2021/12/25 03:02:57;;;;;;;;;;;11.20;82.40;;;;;;5047806;28;20028;-79
2021/12/25 03:05:24;;;;;;;1.30;0.70;;;11.20;82.40;;;;;;5048157;28;19905;-79
2021/12/25 03:07:53;;;;;;;2.13;0.50;;;11.20;82.70;;;;;;5047976;28;20233;-79
2021/12/25 03:10:20;;;;;;;1.50;0.82;;;11.20;82.90;;;;;;5052178;28;20021;-79
2021/12/25 03:12:53;;;;;;;1.38;0.80;;;11.20;83.10;;;;;;5034252;28;20035;-79
2021/12/25 03:15:31;;;;;;;0.93;0.60;;;11.10;83.00;;;;;;5051727;28;20468;-79
2021/12/25 03:17:57;;;;;;;0.80;0.57;;;11.10;82.60;;;;;;5057022;28;20246;-79
2021/12/25 03:20:24;;;;;;;0.63;0.50;;;11.20;82.90;;;;;;5053780;28;20037;-79
2021/12/25 03:22:51;;;;;;;0.63;0.50;;;11.10;82.80;;;;;;5055087;28;20150;-78
2021/12/25 03:25:18;;;;;;;0.70;0.70;;;11.10;82.40;;;;;;5051669;28;20025;-79
2021/12/25 03:27:45;;;;;;;1.77;0.88;;;11.20;82.40;;;;;;5045140;28;20399;-79
2021/12/25 03:30:16;;;;;;;1.40;0.60;;;11.20;82.40;;;;;;5044312;28;20029;-79
2021/12/25 03:32:55;;;;;;;0.63;0.63;;;11.20;82.60;;;;;;5045323;28;20010;-79
2021/12/25 03:35:21;;;;;;;0.70;0.60;;;11.20;82.30;;;;;;5047155;28;20023;-79
2021/12/25 03:37:47;;;;;;;1.38;0.80;;;11.30;82.60;;;;;;5048674;28;20056;-79
2021/12/25 03:40:15;;;;;;;2.95;0.73;;;11.30;82.80;;;;;;5049221;28;20115;-79
2021/12/25 03:42:41;;;;;;;1.63;0.70;;;11.30;82.90;;;;;;5052277;28;20055;-79
2021/12/25 03:45:10;;;;;;;1.25;0.70;;;11.30;82.60;;;;;;5055797;28;20025;-79
2021/12/25 03:47:38;;;;;;;0.60;0.60;;;11.30;82.90;;;;;;5055358;28;20036;-79
2021/12/25 03:58:14;;;;;;;1.00;0.60;;;11.40;82.00;;;;;;5048582;28;20048;-79
2021/12/25 04:00:43;;;;;;;0.47;0.47;;;11.20;82.20;;;;;;5048062;28;20025;-79
2021/12/25 04:03:20;;;;;;;1.10;0.80;;;11.30;82.70;;;;;;5047888;28;20101;-79
2021/12/25 04:05:47;;;;;;;1.15;0.82;;;11.20;82.90;;;;;;5047055;28;20682;-78
2021/12/25 04:08:22;;;;;;;1.35;0.90;;;11.20;83.50;;;;;;5049365;28;20557;-78
2021/12/25 04:10:56;;;;;;;1.48;1.10;;;11.20;83.70;;;;;;5036104;28;20017;-79
2021/12/25 04:14:00;;;;;;;1.17;0.88;;;11.20;84.10;;;;;;5050461;28;20029;-78
2021/12/25 04:16:29;;;;;;;2.00;0.90;;;11.70;85.20;;;;;;5046934;28;20302;-79
2021/12/25 04:18:55;;;;;;;1.60;1.10;;;11.70;84.10;;;;;;5044293;28;20067;-79
2021/12/25 04:24:59;;;;;;;1.45;0.70;;;11.70;86.20;;;;;;5001057;28;20021;-79
2021/12/25 04:27:51;;;;;;;0.98;0.65;;;11.60;86.00;;;;;;5000153;28;20064;-79
2021/12/25 05:06:01;;;;;;;1.80;1.10;;;11.30;84.60;;;;;;5041713;28;20112;-78
2021/12/25 05:09:01;;;;;;;;;;;;;;;;;;;;;
2021/12/25 05:11:32;;;;;;;2.58;1.10;;;11.20;84.40;;;;;;5039983;28;20055;-79
2021/12/25 05:17:31;;;;;;;2.58;1.50;;;10.80;86.50;;;;;;4977539;28;20030;-78
2021/12/25 05:20:58;;;;;;;2.22;1.58;;;11.80;84.20;;;;;;4977421;28;20332;-79
2021/12/25 05:23:42;;;;;;;;;;;;;;;;;;;;;
2021/12/25 05:26:08;;;;;;;2.40;1.00;;;11.20;85.80;;;;;;4958411;28;20046;-78
2021/12/25 05:28:42;;;;;;;2.63;1.20;;;11.30;85.20;;;;;;4959429;28;20461;-78
2021/12/25 05:31:11;;;;;;;4.85;1.20;;;11.30;84.40;;;;;;4959613;28;20030;-79
2021/12/25 05:33:37;;;;;;;1.33;1.00;;;11.30;84.50;;;;;;4962157;28;20537;-79
2021/12/25 05:36:05;;;;;;;1.27;1.00;;;11.30;84.20;;;;;;4945467;28;20134;-79
2021/12/25 05:38:33;;;;;;;1.88;0.90;;;11.30;84.30;;;;;;4944724;28;20336;-79
2021/12/25 05:40:59;;;;;;;1.55;1.00;;;11.30;84.40;;;;;;4962338;28;20062;-78
2021/12/25 05:43:25;;;;;;;1.52;0.95;;;11.30;83.60;;;;;;4946948;28;20510;-79
2021/12/25 05:45:51;;;;;;;1.98;1.80;;;11.30;83.30;;;;;;4963523;28;20062;-79
2021/12/25 05:48:16;;;;;;;2.97;2.00;;;11.30;83.40;;;;;;4963972;28;20086;-78
2021/12/25 05:50:47;;;;;;;1.77;1.20;;;11.30;83.80;;;;;;4964175;28;20344;-79
2021/12/25 05:53:13;;;;;;;3.53;1.48;;;11.30;83.80;;;;;;4946472;28;20440;-79
2021/12/25 05:55:39;;;;;;;2.38;1.90;;;11.30;83.90;;;;;;4986192;28;20046;-79
2021/12/25 05:58:07;;;;;;;1.05;0.90;;;12.20;84.70;;;;;;5007568;28;20064;-79
2021/12/25 06:00:42;;;;;;;5.32;1.67;;;11.30;84.30;;;;;;5050008;28;20369;-79
2021/12/25 06:03:09;;;;;;;3.05;1.92;;;11.40;84.30;;;;;;5051314;28;20128;-79
2021/12/25 06:05:35;;;;;;;2.90;1.80;;;11.40;84.20;;;;;;5050686;28;20382;-78
2021/12/25 06:08:01;;;;;;;4.57;2.50;;;11.40;84.30;;;;;;5050181;28;20025;-79
2021/12/25 06:10:28;;;;;;;4.35;1.55;;;11.40;84.70;;;;;;5054345;28;20027;-78
2021/12/25 06:12:59;;;;;;;1.75;1.40;;;11.30;84.90;;;;;;5054126;28;20204;-79
2021/12/25 06:15:27;;;;;;;2.72;1.35;;;11.30;85.70;;;;;;5052933;28;20155;-79
2021/12/25 06:17:54;;;;;;;4.15;1.90;;;11.30;86.00;;;;;;5051048;28;20093;-79
2021/12/25 06:20:19;;;;;;;2.72;1.90;;;11.30;86.10;;;;;;5046204;28;20048;-78
2021/12/25 06:22:45;;;;;;;3.42;1.88;;;11.30;86.70;;;;;;5045506;28;20484;-78
2021/12/25 06:25:12;;;;;;;7.28;1.80;;;11.40;87.00;;;;;;5045211;28;20511;-79
2021/12/25 06:27:38;;;;;;;5.10;2.05;;;11.30;87.20;;;;;;5045653;28;20283;-79
2021/12/25 06:30:24;;;;;;;4.20;1.35;;;11.20;87.50;;;;;;5044665;28;20021;-78
2021/12/25 06:32:50;;;;;;;6.63;1.63;;;11.20;87.90;;;;;;5045097;28;20062;-78
2021/12/25 06:35:16;;;;;;;6.40;1.48;;;11.20;88.00;;;;;;5043662;28;20037;-79
2021/12/25 06:37:51;;;;;;;5.18;1.63;;;13.20;89.10;;;;;;5043654;28;20021;-78
2021/12/25 06:40:18;;;;;;;1.33;1.15;;;11.20;88.60;;;;;;5044908;28;20036;-78
2021/12/25 06:42:45;;;;;;;6.97;1.60;;;11.20;87.10;;;;;;5044527;28;20029;-79
2021/12/25 06:45:12;;;;;;;2.17;1.50;;;11.20;86.80;;;;;;5044245;28;20020;-79
2021/12/25 06:47:38;;;;;;;6.20;1.52;;;11.20;86.60;;;;;;5043776;28;20297;-78
2021/12/25 06:50:11;;;;;;;5.43;1.40;;;11.20;86.70;;;;;;5044248;28;20025;-79
2021/12/25 06:52:37;;;;;;;5.72;1.40;;;11.20;86.70;;;;;;5046423;28;20021;-78
2021/12/25 06:55:05;;;;;;;2.65;1.10;;;11.30;86.20;;;;;;5046544;28;20759;-79
2021/12/25 06:57:31;;;;;;;2.78;1.40;;;11.30;85.90;;;;;;5046595;28;20418;-79
2021/12/25 06:59:59;;;;;;;1.83;1.50;;;11.30;86.00;;;;;;5047750;28;20114;-79
2021/12/25 07:02:25;;;;;;;1.95;1.10;;;11.10;85.60;;;;;;5044693;28;20042;-79
2021/12/25 07:04:56;;;;;;;4.30;1.30;;;11.30;85.80;;;;;;5040251;28;20029;-79
2021/12/25 07:07:23;;;;;;;1.20;0.85;;;12.20;85.60;;;;;;5042030;28;20040;-79
2021/12/25 07:09:49;;;;;;;1.08;0.80;;;11.40;83.80;;;;;;5043941;28;20040;-78
2021/12/25 07:12:15;;;;;;;6.13;1.40;;;11.40;83.80;;;;;;5041665;28;20029;-78
2021/12/25 07:14:44;;;;;;;1.58;0.90;;;11.40;84.90;;;;;;5044542;28;20088;-79
2021/12/25 07:17:33;;;;;;;3.08;0.98;;;11.50;84.30;;;;;;5042745;28;20488;-79
2021/12/25 07:20:05;;;;;;;1.88;0.90;;;12.40;84.70;;;;;;5026606;28;20030;-78
2021/12/25 07:22:34;;;;;;;2.05;1.00;;;12.10;85.90;;;;;;5027514;28;20106;-79
2021/12/25 07:25:00;;;;;;;1.15;0.90;;;11.60;87.00;;;;;;5030403;28;20029;-79
2021/12/25 07:27:26;;;;;;;2.92;1.02;;;11.30;85.30;;;;;;5048272;28;20106;-79
2021/12/25 07:30:11;;;;;;;2.75;0.88;;;11.40;84.50;;;;;;5045840;28;20045;-79
2021/12/25 07:32:38;;;;;;;1.90;1.05;;;11.30;84.40;;;;;;5039474;28;20551;-79
2021/12/25 07:35:05;;;;;;;2.17;1.40;;;11.30;84.60;;;;;;5040635;28;20297;-79
2021/12/25 07:37:30;;;;;;;2.33;1.10;;;10.90;84.40;;;;;;5039495;28;20348;-78
2021/12/25 07:39:56;;;;;;;1.65;1.05;;;11.30;84.60;;;;;;5040932;28;20064;-79
2021/12/25 07:42:22;;;;;;;3.00;1.00;;;11.30;84.80;;;;;;5041897;28;20253;-78
2021/12/25 07:44:53;;;;;;;1.98;1.20;;;10.50;84.20;;;;;;5042398;28;20052;-78
2021/12/25 07:47:23;;;;;;;2.53;1.10;;;11.30;84.70;;;;;;5042939;28;20038;-79
2021/12/25 07:49:50;;;;;;;4.63;1.20;;;11.30;84.70;;;;;;5042066;28;20021;-78
2021/12/25 07:52:16;;;;;;;3.80;2.10;;;11.30;84.30;;;;;;5042281;28;20294;-79
2021/12/25 07:54:45;;;;;;;3.67;2.20;;;11.30;85.40;;;;;;5042595;28;20122;-79
2021/12/25 07:57:13;;;;;;;5.63;1.40;;;10.90;84.30;;;;;;5043151;28;20025;-79
2021/12/25 07:59:39;;;;;;;3.42;1.30;;;11.20;84.70;;;;;;5043219;28;20051;-79
2021/12/25 08:02:05;;;;;;;4.03;1.20;;;11.30;85.10;;;;;;5042590;28;20031;-79
2021/12/25 08:04:32;;;;;;;4.85;2.55;;;11.30;85.00;;;;;;5042511;28;20025;-79
2021/12/25 08:06:57;;;;;;;4.97;3.55;;;11.30;85.20;;;;;;5041918;28;20341;-79
2021/12/25 08:09:30;;;;;;;4.72;1.83;;;11.50;86.00;;;;;;5040904;28;20041;-78
2021/12/25 08:12:00;;;;;;;3.40;2.08;;;11.20;87.50;;;;;;5041210;28;20013;-79
2021/12/25 08:14:46;;;;;;;4.65;1.33;;;11.20;85.80;;;;;;5039499;28;20025;-79
2021/12/25 08:17:12;;;;;;;3.30;2.17;;;11.20;86.00;;;;;;5039321;28;20036;-79
2021/12/25 08:19:48;;;;;;;6.35;3.10;;;11.20;86.20;;;;;;5040184;28;20613;-80
2021/12/25 08:22:14;;;;;;;2.92;1.50;;;14.10;87.80;;;;;;5038807;28;20033;-79
2021/12/25 08:24:39;;;;;;;3.10;1.33;;;11.20;86.10;;;;;;5040393;28;20017;-79
2021/12/25 08:27:08;;;;;;;2.38;1.58;;;11.10;86.50;;;;;;5041216;28;20028;-79
2021/12/25 08:29:42;;;;;;;3.17;1.58;;;11.10;86.10;;;;;;5040326;28;20021;-79
2021/12/25 08:32:11;;;;;;;4.40;1.85;;;10.70;86.40;;;;;;5040312;28;20025;-78
2021/12/25 08:34:42;;;;;;;6.60;2.50;;;11.20;87.50;;;;;;5039824;28;20025;-79
2021/12/25 08:37:08;;;;;;;5.82;1.83;;;8.30;85.30;;;;;;5041226;28;20024;-79
2021/12/25 08:39:34;;;;;;;1.83;1.30;;;11.10;87.50;;;;;;5042130;28;20029;-79
2021/12/25 08:42:03;;;;;;;3.25;1.35;;;11.10;87.20;;;;;;5041723;28;20043;-78
2021/12/25 08:44:42;;;;;;;5.80;1.60;;;11.00;87.60;;;;;;5041419;28;20017;-79
2021/12/25 08:47:10;;;;;;;3.10;1.27;;;11.00;87.40;;;;;;5044019;28;20086;-79
2021/12/25 08:49:39;;;;;;;4.25;1.45;;;11.00;87.40;;;;;;5044158;28;20022;-79
2021/12/25 08:52:08;;;;;;;3.00;1.33;;;11.70;88.40;;;;;;5043829;28;20024;-79
2021/12/25 08:54:35;;;;;;;1.75;1.40;;;10.90;87.90;;;;;;5044793;28;20083;-79
2021/12/25 08:57:02;;;;;;;6.32;1.80;;;10.90;88.00;;;;;;5049065;28;20071;-78
2021/12/25 08:59:28;;;;;;;4.40;1.58;;;10.80;87.70;;;;;;5050887;28;20059;-78
2021/12/25 09:01:55;;;;;;;2.25;1.05;;;10.90;87.80;;;;;;5052325;28;20112;-78
2021/12/25 09:04:21;;;;;;;3.42;1.63;;;11.10;86.60;;;;;;5050889;28;20013;-78
2021/12/25 09:06:47;;;;;;;2.80;1.50;;;11.10;87.40;;;;;;5050161;28;20040;-79
2021/12/25 09:09:15;;;;;;;4.43;1.65;;;11.10;87.30;;;;;;5040980;28;20009;-79
2021/12/25 09:11:45;;;;;;;4.22;2.38;;;9.20;85.70;;;;;;5039558;28;20276;-78
2021/12/25 09:14:10;;;;;;;4.93;1.90;;;11.20;86.50;;;;;;5040021;28;20029;-78
2021/12/25 09:16:39;;;;;;;2.35;1.13;;;11.20;86.70;;;;;;5040679;28;20070;-78
2021/12/25 09:19:05;;;;;;;2.88;1.20;;;11.30;85.60;;;;;;5041600;28;20094;-77
2021/12/25 09:21:34;;;;;;;4.00;1.70;;;11.30;85.60;;;;;;5040828;28;20119;-78
2021/12/25 09:24:00;;;;;;;3.70;1.60;;;11.40;85.00;;;;;;5040623;28;20538;-77
2021/12/25 09:26:26;;;;;;;5.68;1.45;;;11.40;85.50;;;;;;5040815;28;20032;-78
2021/12/25 09:28:52;;;;;;;5.07;1.38;;;11.40;84.30;;;;;;5040870;28;20491;-77
2021/12/25 09:31:18;;;;;;;2.05;1.33;;;11.50;84.00;;;;;;5042533;28;20052;-78
2021/12/25 09:33:43;;;;;;;3.13;1.25;;;11.50;83.60;;;;;;5048279;28;20018;-78
2021/12/25 09:36:09;;;;;;;2.13;1.20;;;11.60;83.80;;;;;;5052723;28;20032;-78
2021/12/25 09:38:35;;;;;;;3.55;1.60;;;11.60;83.50;;;;;;5052084;28;20033;-78
2021/12/25 09:41:03;;;;;;;1.70;1.27;;;11.60;83.80;;;;;;5046552;28;20092;-79
2021/12/25 09:43:29;;;;;;;4.68;1.38;;;11.70;83.70;;;;;;5044094;28;20353;-80
2021/12/25 09:45:56;;;;;;;3.40;1.30;;;11.70;83.60;;;;;;5043816;28;20029;-78
2021/12/25 09:48:22;;;;;;;5.50;1.60;;;11.80;83.30;;;;;;5043876;28;20051;-78
2021/12/25 09:50:48;;;;;;;3.22;1.60;;;11.80;83.40;;;;;;5047048;28;20036;-79
2021/12/25 09:53:16;;;;;;;9.90;1.83;;;11.80;83.80;;;;;;5052188;28;20025;-77
2021/12/25 09:55:44;;;;;;;8.38;2.78;;;11.80;83.30;;;;;;5047455;28;20056;-80
2021/12/25 09:58:10;;;;;;;4.93;2.20;;;11.90;83.30;;;;;;5045006;28;20502;-79
2021/12/25 10:00:40;;;;;;;10.25;3.53;;;12.00;83.60;;;;;;5044193;28;20082;-79
2021/12/25 10:03:06;;;;;;;6.30;3.00;;;12.10;82.80;;;;;;5045378;28;20020;-79
2021/12/25 10:05:41;;;;;;;4.82;1.92;;;12.10;82.00;;;;;;5044863;28;20028;-81
2021/12/25 10:08:13;;;;;;;4.55;2.30;;;12.10;82.40;;;;;;5044192;28;20023;-80
2021/12/25 10:10:45;;;;;;;3.47;1.95;;;12.20;81.90;;;;;;5044211;28;20061;-80
2021/12/25 10:13:27;;;;;;;4.88;2.50;;;12.20;81.70;;;;;;5044159;28;20675;-80
2021/12/25 10:15:57;;;;;;;41.47;16.05;;;12.20;80.70;;;;;;5042553;28;20048;-80
2021/12/25 10:18:34;;;;;;;4.88;1.75;;;12.40;81.20;;;;;;5044290;28;20729;-83
2021/12/25 10:21:35;;;;;;;1.50;0.90;;;12.30;80.50;;;;;;5045862;28;20033;-82
2021/12/25 10:24:24;;;;;;;6.18;2.83;;;12.60;79.00;;;;;;5009305;28;20213;-81
2021/12/25 10:26:49;;;;;;;19.73;10.20;;;12.50;79.50;;;;;;4987959;28;20032;-82
2021/12/25 10:29:16;;;;;;;3.83;1.35;;;12.60;79.50;;;;;;5004370;28;20026;-82
2021/12/25 10:31:42;;;;;;;3.25;1.50;;;12.60;78.60;;;;;;4987287;28;20045;-83
2021/12/25 10:34:30;;;;;;;6.18;1.85;;;12.60;78.90;;;;;;5004038;28;20030;-82
2021/12/25 10:37:16;;;;;;;3.95;2.40;;;12.70;78.80;;;;;;5000446;28;20022;-80
2021/12/25 10:39:41;;;;;;;5.07;2.20;;;12.70;78.60;;;;;;4999856;28;20114;-79
2021/12/25 10:42:13;;;;;;;1.95;1.10;;;12.70;79.00;;;;;;5000660;28;20026;-80
2021/12/25 10:44:42;;;;;;;3.17;1.63;;;12.70;77.70;;;;;;5001261;28;20133;-82
2021/12/25 10:47:20;;;;;;;4.78;1.42;;;12.80;77.20;;;;;;4999661;28;20730;-82
2021/12/25 10:50:02;;;;;;;2.33;1.40;;;12.90;76.00;;;;;;4983022;28;20022;-79
2021/12/25 10:52:32;;;;;;;3.50;2.30;;;12.90;75.80;;;;;;4983771;28;20385;-79
2021/12/25 10:55:16;;;;;;;1.60;1.15;;;13.00;75.20;;;;;;4999814;28;20107;-81
2021/12/25 10:57:49;;;;;;;1.60;0.88;;;13.60;75.40;;;;;;5022189;28;20037;-80
2021/12/25 11:00:20;;;;;;;3.53;1.00;;;12.80;75.20;;;;;;5051969;28;20082;-80
2021/12/25 11:02:56;;;;;;;2.45;0.90;;;12.70;75.70;;;;;;5054070;28;20021;-80
2021/12/25 11:05:45;;;;;;;1.05;0.70;;;12.70;75.60;;;;;;5054337;28;20076;-80
2021/12/25 11:08:19;;;;;;;1.23;0.82;;;12.70;75.40;;;;;;5052241;28;20040;-79
2021/12/25 11:11:13;;;;;;;1.05;0.95;;;16.10;77.20;;;;;;5051182;28;20036;-80
2021/12/25 11:13:53;;;;;;;1.98;1.08;;;12.80;75.40;;;;;;5049201;28;20687;-81
2021/12/25 11:16:37;;;;;;;2.10;1.20;;;13.20;75.00;;;;;;5044650;28;20017;-81
2021/12/25 11:21:54;;;;;;;2.92;1.63;;;14.70;75.50;;;;;;5048344;28;20848;-80
2021/12/25 11:24:26;;;;;;;3.75;1.60;;;13.20;74.20;;;;;;5045045;28;20024;-83
2021/12/25 11:27:06;;;;;;;1.48;1.10;;;13.30;73.20;;;;;;5041322;28;20064;-83
2021/12/25 11:29:36;;;;;;;2.08;0.90;;;13.20;73.40;;;;;;5039168;28;20032;-82
2021/12/25 11:32:08;;;;;;;2.25;1.45;;;13.30;72.70;;;;;;5051805;28;20025;-80
2021/12/25 11:34:38;;;;;;;1.60;0.95;;;13.40;72.70;;;;;;5056741;28;20476;-82
2021/12/25 11:37:05;;;;;;;2.08;1.65;;;13.30;71.90;;;;;;5051384;28;20017;-81
2021/12/25 11:39:33;;;;;;;4.05;1.30;;;13.50;72.10;;;;;;5058901;28;20683;-83
2021/12/25 11:42:06;;;;;;;1.85;0.90;;;13.50;72.10;;;;;;5059279;28;20025;-80
2021/12/25 11:44:43;;;;;;;3.47;1.70;;;13.30;72.70;;;;;;5052569;28;20032;-79
2021/12/25 11:47:37;;;;;;;2.25;1.50;;;13.60;73.30;;;;;;5061683;28;20024;-82
2021/12/25 11:50:32;;;;;;;8.32;3.30;;;13.60;72.50;;;;;;5003920;28;20041;-82
2021/12/25 11:53:15;;;;;;;4.43;2.10;;;13.00;73.00;;;;;;4950270;28;20094;-82
2021/12/25 11:58:37;;;;;;;4.22;1.35;;;13.20;75.40;;;;;;4967057;28;20034;-81
2021/12/25 12:01:35;;;;;;;4.38;2.20;;;13.10;74.10;;;;;;4963836;29;20043;-79
2021/12/25 12:04:24;;;;;;;4.78;2.40;;;13.10;74.50;;;;;;4888920;29;20037;-78
2021/12/25 12:07:01;;;;;;;4.47;1.40;;;13.00;75.40;;;;;;4854755;29;20061;-79
2021/12/25 12:10:03;;;;;;;2.15;1.10;;;13.00;75.40;;;;;;4870647;29;20021;-80
2021/12/25 12:12:58;;;;;;;5.43;2.33;;;12.80;76.00;;;;;;4850143;29;20046;-79
2021/12/25 12:15:25;;;;;;;5.85;1.75;;;11.70;75.90;;;;;;4862261;29;20048;-81
2021/12/25 12:17:54;;;;;;;5.85;1.92;;;12.60;77.70;;;;;;4859097;29;20097;-79
2021/12/25 12:20:39;;;;;;;2.58;1.35;;;12.60;78.20;;;;;;4861342;29;20113;-79
2021/12/25 12:26:33;;;;;;;3.97;1.60;;;12.40;79.20;;;;;;4883204;29;20041;-79
2021/12/25 12:28:59;;;;;;;4.07;2.10;;;12.40;80.00;;;;;;4881387;29;21019;-81
2021/12/25 12:31:44;;;;;;;3.08;1.73;;;12.40;80.30;;;;;;4879042;29;20025;-81
2021/12/25 12:34:31;;;;;;;4.97;1.60;;;12.40;80.10;;;;;;4875889;29;20033;-79
2021/12/25 12:37:17;;;;;;;2.38;1.30;;;12.50;80.00;;;;;;4856038;29;20675;-79
2021/12/25 12:39:56;;;;;;;4.75;2.28;;;12.40;79.70;;;;;;4916623;28;20034;-79
2021/12/25 12:42:47;;;;;;;3.45;1.60;;;12.40;80.50;;;;;;4963655;28;20042;-81
2021/12/25 12:45:21;;;;;;;6.72;1.73;;;12.40;80.80;;;;;;5010362;28;20313;-81
2021/12/25 12:48:06;;;;;;;2.85;1.30;;;12.50;80.10;;;;;;5011099;28;20018;-79
2021/12/25 12:50:33;;;;;;;22.88;3.08;;;12.20;80.30;;;;;;5007544;28;20057;-79
2021/12/25 12:53:06;;;;;;;7.20;1.30;;;12.50;80.50;;;;;;5005604;28;20041;-80
2021/12/25 12:55:34;;;;;;;2.40;1.33;;;12.50;80.10;;;;;;4994592;28;20049;-82
2021/12/25 12:58:10;;;;;;;1.75;1.20;;;12.50;80.40;;;;;;5011449;28;20172;-79
2021/12/25 13:00:37;;;;;;;1.88;1.50;;;12.60;80.30;;;;;;5010291;28;20111;-79
2021/12/25 13:03:04;;;;;;;2.80;1.27;;;12.60;80.10;;;;;;5024018;28;20646;-80
2021/12/25 13:05:40;;;;;;;1.33;0.90;;;12.60;80.20;;;;;;5049816;28;20025;-80
2021/12/25 13:08:31;;;;;;;4.38;1.25;;;12.70;80.10;;;;;;5049010;28;20100;-79
2021/12/25 13:11:11;;;;;;;6.90;1.65;;;12.90;80.40;;;;;;5050471;28;20087;-80
2021/12/25 13:13:46;;;;;;;0.90;0.90;;;12.80;80.10;;;;;;5045151;28;20100;-80
2021/12/25 13:16:17;;;;;;;2.22;1.00;;;12.90;78.90;;;;;;5044371;28;20135;-81
2021/12/25 13:18:47;;;;;;;3.13;1.02;;;12.80;79.20;;;;;;5045355;28;20024;-79
2021/12/25 13:21:33;;;;;;;3.72;1.40;;;12.80;78.60;;;;;;5048714;28;20083;-79
2021/12/25 13:24:09;;;;;;;1.55;1.00;;;11.90;78.40;;;;;;5047228;28;20025;-79
2021/12/25 13:26:42;;;;;;;3.75;1.00;;;12.80;79.30;;;;;;5052631;28;20021;-79
2021/12/25 13:29:14;;;;;;;3.63;1.38;;;12.70;79.90;;;;;;5051680;28;20119;-83
2021/12/25 13:31:43;;;;;;;1.83;1.10;;;12.80;79.70;;;;;;5044362;28;20028;-79
2021/12/25 13:34:20;;;;;;;6.10;1.10;;;12.80;78.90;;;;;;5047086;28;20017;-81
2021/12/25 13:36:57;;;;;;;3.13;1.08;;;12.80;78.60;;;;;;5046891;28;20009;-79
2021/12/25 13:39:28;;;;;;;0.70;0.70;;;12.70;78.70;;;;;;5047041;28;20667;-79
2021/12/25 13:42:07;;;;;;;1.95;1.08;;;12.70;78.00;;;;;;5045737;28;20128;-79
2021/12/25 13:44:35;;;;;;;1.30;1.10;;;12.60;78.60;;;;;;5047981;28;20231;-79
2021/12/25 13:47:05;;;;;;;1.65;1.17;;;12.50;79.10;;;;;;5042708;28;20025;-78
2021/12/25 13:49:43;;;;;;;2.28;1.10;;;12.50;78.70;;;;;;5040656;28;20017;-81
2021/12/25 13:52:21;;;;;;;2.47;1.25;;;12.50;78.80;;;;;;5043901;28;20029;-81
2021/12/25 13:55:14;;;;;;;1.83;1.00;;;12.60;78.30;;;;;;5047253;28;20057;-79
2021/12/25 13:57:55;;;;;;;1.85;1.13;;;12.60;78.10;;;;;;5043730;28;20568;-79
2021/12/25 14:00:38;;;;;;;1.58;0.77;;;12.60;77.40;;;;;;5049262;28;20037;-83
2021/12/25 14:03:13;;;;;;;0.60;0.60;;;12.50;77.70;;;;;;5054227;28;20036;-80
2021/12/25 14:05:44;;;;;;;4.57;1.40;;;12.60;77.40;;;;;;5055082;28;20021;-79
2021/12/25 14:08:11;;;;;;;1.17;0.82;;;12.70;77.20;;;;;;5055672;28;20021;-81
2021/12/25 14:10:45;;;;;;;3.35;0.80;;;12.70;76.90;;;;;;5055973;28;20088;-80
2021/12/25 14:13:19;;;;;;;2.13;1.00;;;12.70;76.80;;;;;;5051621;28;20029;-80
2021/12/25 14:16:08;;;;;;;1.05;0.80;;;12.60;77.20;;;;;;5054588;28;20371;-81
2021/12/25 14:18:44;;;;;;;2.22;1.17;;;12.60;77.40;;;;;;5052867;28;20025;-79
2021/12/25 14:21:59;;;;;;;3.67;1.77;;;12.60;77.90;;;;;;5065596;28;20313;-81
2021/12/25 14:24:49;;;;;;;1.10;0.90;;;12.60;79.30;;;;;;5035013;28;20189;-81
2021/12/25 14:27:22;;;;;;;2.75;1.50;;;12.30;79.50;;;;;;5067365;28;20025;-81
2021/12/25 14:29:49;;;;;;;5.13;1.58;;;12.30;80.10;;;;;;5064709;28;20021;-82
2021/12/25 14:32:30;;;;;;;2.83;1.85;;;12.20;80.60;;;;;;5064356;28;20033;-80
2021/12/25 14:34:59;;;;;;;3.08;1.50;;;12.20;80.10;;;;;;5062961;28;20100;-80
2021/12/25 14:38:14;;;;;;;4.22;1.83;;;12.10;80.40;;;;;;5059654;28;20025;-85
2021/12/25 14:41:02;;;;;;;11.10;4.50;;;10.30;79.90;;;;;;5016828;28;20041;-80
2021/12/25 14:43:31;;;;;;;11.65;6.15;;;12.80;81.60;;;;;;5010634;28;20026;-80